Sapporo, Japón

9:13 AM JST en Octubre 26, 2014 (GMT +0900)
New Chitose | Change Station
CLOSE
Current Station
Aeropuerto
Location: Chitose AB,
Altura: 98 ft
Estaciones meteorológicas cercanas

Alt 98 ft 42.77 °N, 141.69 °E | Updated 13 minutes ago

Partly Cloudy
Parcialmente nublado
64 ° F
Sensación térmica 64 ° F
N
16
Viento Variable Viento desde Sur

Hoy
Alta -- | Baja -- ° F
--% Posibilidad de precipitaciones
Ayer
Alta -- | Baja -- ° F
Precip. -- pul
6:00 AM 4:35 PM
Creciente, 5% visible
Presión 30.01 pul
Visibilidad 6.2 Millas
Nubes Baja 1500 ft
Punto de rocío 55 ° F
Humedad 73%
Precipitaciones 0.00 pul
Espesor de la nieve No disponible.
UV 0 de una escala de 12
Polen No disponible.
Calidad del aire No disponible.
Flu Activity No disponible.
METAR RJCC 260000Z 18014KT 9999 FEW015 18/13 Q1016 RMK 1ST015 A3003

More Conditions Fewer Conditions

Presión 30.01 pul
Visibilidad 6.2 Millas
Nubes Baja 1500 ft
Punto de rocío 55 ° F
Humedad 73%
Precipitaciones 0.00 pul
Espesor de la nieve No disponible.
UV 0 de una escala de 12
Polen No disponible.
Calidad del aire No disponible.
Flu Activity No disponible.
METAR RJCC 260000Z 18014KT 9999 FEW015 18/13 Q1016 RMK 1ST015 A3003

More Conditions Fewer Conditions

10-Day Weather Forecast

Almanac

Astronomía

Oct. 26, 2014 Salida Puesta
Hora real 6:00 AM JST 4:35 PM JST
Crepúsculo civil 5:31 AM JST 5:04 PM JST
Crepúsculo náutico 4:58 AM JST 5:38 PM JST
Crepúsculo astronómico 4:25 AM JST 6:11 PM JST
Luna 8:03 AM JST 6:13 PM JST
Horas de luz 11h 33m
Horas de luz
10h 34m
Tomorrow will be 2m 42s shorter.
Creciente, 5% of the Moon is Illuminated
Oct 25
Creciente
Oct 30
Cuarto creciente
Nov 6
Luna llena
Nov 14
Cuarto menguante
Nov 22
Nueva

Extremos de ayer

Máximos del país Bajas del país

Community

WunderPhotos

Upload Photos

1,765,039 ¡fotos cargadas!

Nearby

Calidad del aire

Not available.

Grosos de nieve

Not available.

Actividad de terremotos

Ciudad Distance Mag. Tiempo y dato
No hay informes recientes de la actividad sísmica.
Magnitud mínima muestra es 2,5.

Temperaturas de aguas costeras

Lugar Temperatura
Sin partes meteorológicos de las estaciones

Estaciones meteorológicas cercanas